Time;durP1;ratioP1;P1;durP2;ratioP2;P2;SDS_P1;SDS_P2;PMS_P1;PMS_P2;Temp;Humidity;BMP_temperature;BMP_pressure;BME280_temperature;BME280_humidity;BME280_pressure;Samples;Min_cycle;Max_cycle;Signal;HPM_P1;HPM_P2
2022/06/20 00:01:55;;;;;;;;;;;;;;;-140.72;100.00;52459.84;6280091;22;19911;-73
2022/06/20 00:04:21;;;;;;;;;;;;;;;-140.72;100.00;52492.31;6279608;22;19915;-72
2022/06/20 00:06:46;;;;;;;;;;;;;;;-140.72;100.00;52500.44;6279284;22;19948;-73
2022/06/20 00:09:11;;;;;;;;;;;;;;;-140.72;100.00;52500.44;6279841;22;20049;-73
2022/06/20 00:11:39;;;;;;;;;;;;;;;-140.72;100.00;52492.31;6279565;22;19918;-74
2022/06/20 00:14:05;;;;;;;;;;;;;;;-140.72;100.00;52465.94;6251523;22;19915;-72
2022/06/20 00:16:33;;;;;;;;;;;;;;;-140.72;100.00;52459.84;6278948;22;19993;-73
2022/06/20 00:18:59;;;;;;;;;;;;;;;-140.72;100.00;52492.31;6278567;22;19951;-72
2022/06/20 00:21:24;;;;;;;;;;;;;;;-140.72;100.00;52504.50;6278821;22;19984;-72
2022/06/20 00:23:50;;;;;;;;;;;;;;;-140.72;100.00;52508.56;6251855;22;19947;-72
2022/06/20 00:26:16;;;;;;;;;;;;;;;-140.72;100.00;52478.13;6278949;22;19922;-71
2022/06/20 00:28:41;;;;;;;;;;;;;;;-140.72;100.00;52463.91;6278965;22;19915;-73
2022/06/20 00:31:07;;;;;;;;;;;;;;;-140.72;100.00;52472.03;6251652;22;19993;-72
2022/06/20 00:33:32;;;;;;;;;;;;;;;-140.72;100.00;52492.31;6278780;22;20333;-72
2022/06/20 00:35:58;;;;;;;;;;;;;;;-140.72;100.00;52500.44;6278997;22;19949;-73
2022/06/20 00:38:24;;;;;;;;;;;;;;;-140.72;100.00;52520.72;6278647;22;20286;-73
2022/06/20 00:40:51;;;;;;;;;;;;;;;-140.72;100.00;52453.75;6279159;22;19943;-72
2022/06/20 00:43:46;;;;;;;;;;;;;;;-140.72;100.00;52492.31;6278431;22;20344;-72
2022/06/20 00:46:32;;;;;;;;;;;;;;;-140.72;100.00;52472.03;6231066;22;19919;-72
2022/06/20 00:49:20;;;;;;;;;;;;;;;-140.72;100.00;52508.56;6280032;22;19915;-72
2022/06/20 00:51:46;;;;;;;;;;;;;;;-140.72;100.00;52510.59;6265721;22;19911;-72
2022/06/20 00:54:23;;;;;;;;;;;;;;;-140.72;100.00;52478.13;6279129;22;20294;-73
2022/06/20 00:56:58;;;;;;;;;;;;;;;-140.72;100.00;52476.09;6251765;22;19922;-72
2022/06/20 00:59:26;;;;;;;;;;;;;;;-140.72;100.00;52476.09;6284591;22;19922;-72
2022/06/20 01:01:51;;;;;;;;;;;;;;;-140.72;100.00;52502.47;6289617;22;19921;-72
2022/06/20 01:04:29;;;;;;;;;;;;;;;-140.72;100.00;52520.72;6282229;22;20034;-72
2022/06/20 01:06:56;;;;;;;;;;;;;;;-140.72;100.00;52500.44;6283229;22;19915;-72
2022/06/20 01:09:23;;;;;;;;;;;;;;;-140.72;100.00;52500.44;6278635;22;20244;-72
2022/06/20 01:11:50;;;;;;;;;;;;;;;-140.72;100.00;52480.16;6278662;22;19911;-72
2022/06/20 01:14:19;;;;;;;;;;;;;;;-140.72;100.00;52470.00;6278712;22;19912;-72
2022/06/20 01:16:44;;;;;;;;;;;;;;;-140.72;100.00;52488.25;6281333;22;19915;-72
2022/06/20 01:19:09;;;;;;;;;;;;;;;-140.72;100.00;52492.31;6281653;22;19934;-72
2022/06/20 01:21:38;;;;;;;;;;;;;;;-140.72;100.00;52510.59;6278300;22;20307;-72
2022/06/20 01:24:23;;;;;;;;;;;;;;;-140.72;100.00;52439.56;6278483;22;19979;-73
2022/06/20 01:27:21;;;;;;;;;;;;;;;-140.72;100.00;52526.81;6278927;22;20252;-72
2022/06/20 01:29:47;;;;;;;;;;;;;;;-140.72;100.00;52472.03;6279024;22;19918;-72
2022/06/20 01:32:13;;;;;;;;;;;;;;;-140.72;100.00;52524.78;6278305;22;19911;-72
2022/06/20 01:34:38;;;;;;;;;;;;;;;-140.72;100.00;52488.25;6279582;22;20257;-72
2022/06/20 01:39:51;;;;;;;;;;;;;;;-140.72;100.00;52474.06;6279136;22;19919;-72
2022/06/20 01:42:20;;;;;;;;;;;;;;;-140.72;100.00;52453.75;6250526;22;19942;-72
2022/06/20 01:44:52;;;;;;;;;;;;;;;-140.72;100.00;52506.53;6250906;22;20293;-72
2022/06/20 01:47:17;;;;;;;;;;;;;;;-140.72;100.00;52486.22;6278210;22;19911;-73
2022/06/20 01:49:45;;;;;;;;;;;;;;;-140.72;100.00;52492.31;6279007;22;19987;-72
2022/06/20 01:52:17;;;;;;;;;;;;;;;-140.72;100.00;52453.75;6278769;22;19911;-73
2022/06/20 01:54:44;;;;;;;;;;;;;;;-140.72;100.00;52508.56;6279263;22;19923;-73
2022/06/20 01:57:10;;;;;;;;;;;;;;;-140.72;100.00;52480.16;6251990;22;19911;-72
2022/06/20 01:59:45;;;;;;;;;;;;;;;-140.72;100.00;52470.00;6278483;22;19935;-72
2022/06/20 02:02:11;;;;;;;;;;;;;;;-140.72;100.00;52541.03;6278813;22;20245;-73
2022/06/20 02:04:37;;;;;;;;;;;;;;;-140.72;100.00;52482.16;6279454;22;19960;-73
2022/06/20 02:07:04;;;;;;;;;;;;;;;-140.72;100.00;52447.69;6252150;22;19911;-73
2022/06/20 02:09:30;;;;;;;;;;;;;;;-140.72;100.00;52496.38;6278941;22;19959;-72
2022/06/20 02:11:56;;;;;;;;;;;;;;;-140.72;100.00;52488.25;6279436;22;19911;-72
2022/06/20 02:14:23;;;;;;;;;;;;;;;-140.72;100.00;52472.03;6253152;22;19998;-73
2022/06/20 02:17:00;;;;;;;;;;;;;;;-140.72;100.00;52496.38;6279352;22;19976;-72
2022/06/20 02:19:29;;;;;;;;;;;;;;;-140.72;100.00;52472.03;6252468;22;19912;-73
2022/06/20 02:21:57;;;;;;;;;;;;;;;-140.72;100.00;52500.44;6279374;22;20025;-72
2022/06/20 02:24:23;;;;;;;;;;;;;;;-140.72;100.00;52502.47;6277104;22;19930;-72
2022/06/20 02:26:50;;;;;;;;;;;;;;;-140.72;100.00;52530.88;6217050;23;19920;-72
2022/06/20 02:29:23;;;;;;;;;;;;;;;-140.72;100.00;52498.41;6215776;23;19995;-72
2022/06/20 02:32:07;;;;;;;;;;;;;;;-140.72;100.00;52500.44;6217552;23;19919;-73
2022/06/20 02:34:35;;;;;;;;;;;;;;;-140.72;100.00;52520.72;6257996;22;20281;-82
2022/06/20 02:37:01;;;;;;;;;;;;;;;-140.72;100.00;52498.41;6273273;22;19921;-81
2022/06/20 02:39:31;;;;;;;;;;;;;;;-140.72;100.00;52516.66;6272613;22;19915;-81
2022/06/20 02:42:01;;;;;;;;;;;;;;;-140.72;100.00;52478.13;6273263;22;19911;-81
2022/06/20 02:44:41;;;;;;;;;;;;;;;-140.72;100.00;52488.25;6274002;22;19919;-81
2022/06/20 02:47:07;;;;;;;;;;;;;;;-140.72;100.00;52492.31;6273547;22;19931;-80
2022/06/20 02:49:33;;;;;;;;;;;;;;;-140.72;100.00;52532.91;6273585;22;19918;-80
2022/06/20 02:52:07;;;;;;;;;;;;;;;-140.72;100.00;52522.75;6272225;22;19911;-81
2022/06/20 02:54:34;;;;;;;;;;;;;;;-140.72;100.00;52555.22;6272765;22;19911;-81
2022/06/20 02:57:04;;;;;;;;;;;;;;;-140.72;100.00;52532.91;6273216;22;19983;-80
2022/06/20 02:59:39;;;;;;;;;;;;;;;-140.72;100.00;52524.78;6273885;22;20245;-80
2022/06/20 03:02:08;;;;;;;;;;;;;;;-140.72;100.00;52530.88;6273596;22;20304;-81
2022/06/20 03:04:34;;;;;;;;;;;;;;;-140.72;100.00;52516.66;6275681;22;19918;-81
2022/06/20 03:07:01;;;;;;;;;;;;;;;-140.72;100.00;52502.47;6277155;22;20208;-81
2022/06/20 03:09:30;;;;;;;;;;;;;;;-140.72;100.00;52536.97;6277673;22;20184;-82
2022/06/20 03:11:56;;;;;;;;;;;;;;;-140.72;100.00;52543.03;6262195;22;19977;-82
2022/06/20 03:14:24;;;;;;;;;;;;;;;-140.72;100.00;52526.81;6273250;22;20370;-82
2022/06/20 03:17:01;;;;;;;;;;;;;;;-140.72;100.00;52494.34;6273133;22;19911;-81
2022/06/20 03:19:31;;;;;;;;;;;;;;;-140.72;100.00;52520.72;6273996;22;19912;-82
2022/06/20 03:22:11;;;;;;;;;;;;;;;-140.72;100.00;52504.50;6273552;22;19911;-81
2022/06/20 03:24:37;;;;;;;;;;;;;;;-140.72;100.00;52524.78;6272483;22;19911;-81
2022/06/20 03:27:06;;;;;;;;;;;;;;;-140.72;100.00;52518.69;6273818;22;20307;-81
2022/06/20 03:29:35;;;;;;;;;;;;;;;-140.72;100.00;52536.97;6274501;22;19988;-81
2022/06/20 03:32:00;;;;;;;;;;;;;;;-140.72;100.00;52504.50;6276332;22;19911;-82
2022/06/20 03:34:27;;;;;;;;;;;;;;;-140.72;100.00;52488.25;6275775;22;19946;-82
2022/06/20 03:36:52;;;;;;;;;;;;;;;-140.72;100.00;52508.56;6275066;22;20046;-82
2022/06/20 03:39:21;;;;;;;;;;;;;;;-140.72;100.00;52486.22;6275112;22;19922;-82
2022/06/20 03:41:47;;;;;;;;;;;;;;;-140.72;100.00;52551.16;6275874;22;19917;-81
2022/06/20 03:44:28;;;;;;;;;;;;;;;-140.72;100.00;52559.28;6276150;22;20110;-82
2022/06/20 03:47:04;;;;;;;;;;;;;;;-140.72;100.00;52516.66;6275605;22;19922;-82
2022/06/20 03:49:33;;;;;;;;;;;;;;;-140.72;100.00;52494.34;6274350;22;19915;-81
2022/06/20 03:52:08;;;;;;;;;;;;;;;-140.72;100.00;52532.91;6275637;22;19915;-82
2022/06/20 03:54:39;;;;;;;;;;;;;;;-140.72;100.00;52494.34;6276880;22;19915;-81
2022/06/20 03:57:16;;;;;;;;;;;;;;;-140.72;100.00;52488.25;6275180;22;19915;-82
2022/06/20 04:00:08;;;;;;;;;;;;;;;-140.72;100.00;52508.56;6276230;22;19918;-82
2022/06/20 04:02:39;;;;;;;;;;;;;;;-140.72;100.00;52541.03;6270593;22;19915;-82
2022/06/20 04:05:07;;;;;;;;;;;;;;;-140.72;100.00;52504.50;6276629;22;19977;-81
2022/06/20 04:07:37;;;;;;;;;;;;;;;-140.72;100.00;52520.72;6276752;22;19938;-80
2022/06/20 04:13:19;;;;;;;;;;;;;;;-140.72;100.00;52476.09;6275846;22;20018;-81
2022/06/20 04:15:49;;;;;;;;;;;;;;;-140.72;100.00;52532.91;6247977;22;19915;-81
2022/06/20 04:18:37;;;;;;;;;;;;;;;-140.72;100.00;52524.78;6274717;22;20001;-82
2022/06/20 04:21:15;;;;;;;;;;;;;;;-140.72;100.00;52551.16;6205646;22;20007;-82
2022/06/20 04:23:41;;;;;;;;;;;;;;;-140.72;100.00;52496.38;6274974;22;20243;-82
2022/06/20 04:26:07;;;;;;;;;;;;;;;-140.72;100.00;52512.59;6274794;22;19911;-81
2022/06/20 04:28:36;;;;;;;;;;;;;;;-140.72;100.00;52553.19;6274884;22;19912;-81
2022/06/20 04:31:07;;;;;;;;;;;;;;;-140.72;100.00;52528.84;6274777;22;19911;-84
2022/06/20 04:33:39;;;;;;;;;;;;;;;-140.72;100.00;52492.31;6273358;22;19915;-84
2022/06/20 04:36:04;;;;;;;;;;;;;;;-140.72;100.00;52486.22;6274617;22;19923;-80
2022/06/20 04:38:33;;;;;;;;;;;;;;;-140.72;100.00;52508.56;6275162;22;20426;-82
2022/06/20 04:41:10;;;;;;;;;;;;;;;-140.72;100.00;52522.75;6274341;22;19962;-84
2022/06/20 04:43:57;;;;;;;;;;;;;;;-140.72;100.00;52480.16;6275086;22;19919;-82
2022/06/20 04:46:28;;;;;;;;;;;;;;;-140.72;100.00;52476.09;6275458;22;19911;-81
2022/06/20 04:48:53;;;;;;;;;;;;;;;-140.72;100.00;52492.31;6274272;22;19920;-79
2022/06/20 04:51:22;;;;;;;;;;;;;;;-140.72;100.00;52492.31;6275730;22;19982;-79
2022/06/20 04:53:48;;;;;;;;;;;;;;;-140.72;100.00;52476.09;6273682;22;19934;-78
2022/06/20 04:56:14;;;;;;;;;;;;;;;-140.72;100.00;52500.44;6274632;22;19915;-81
2022/06/20 04:58:48;;;;;;;;;;;;;;;-140.72;100.00;52476.09;6274698;22;19915;-80
2022/06/20 05:01:14;;;;;;;;;;;;;;;-140.72;100.00;52455.78;6274386;22;19919;-80
2022/06/20 05:03:45;;;;;;;;;;;;;;;-140.72;100.00;52524.78;6273131;22;19968;-78
2022/06/20 05:06:18;;;;;;;;;;;;;;;-140.72;100.00;52465.94;6275291;22;19997;-79
2022/06/20 05:08:48;;;;;;;;;;;;;;;-140.72;100.00;52484.19;6278162;22;19951;-82
2022/06/20 05:11:23;;;;;;;;;;;;;;;-140.72;100.00;52439.56;6279657;22;20014;-82
2022/06/20 05:13:51;;;;;;;;;;;;;;;-140.72;100.00;52451.72;6267768;22;19911;-79
2022/06/20 05:16:19;;;;;;;;;;;;;;;-140.72;100.00;52451.72;6275088;22;19946;-80
2022/06/20 05:18:47;;;;;;;;;;;;;;;-140.72;100.00;52463.91;6274287;22;19990;-82
2022/06/20 05:21:26;;;;;;;;;;;;;;;-140.72;100.00;52494.34;6277092;22;19997;-85
2022/06/20 05:23:54;;;;;;;;;;;;;;;-140.72;100.00;52459.84;6281522;22;19911;-86
2022/06/20 05:26:21;;;;;;;;;;;;;;;-140.72;100.00;52480.16;6276631;22;20053;-85
2022/06/20 05:28:49;;;;;;;;;;;;;;;-140.72;100.00;52459.84;6276158;22;19912;-86
2022/06/20 05:31:17;;;;;;;;;;;;;;;-140.72;100.00;52482.16;6275847;22;19915;-85
2022/06/20 05:33:55;;;;;;;;;;;;;;;-140.72;100.00;52463.91;6274415;22;19991;-84
2022/06/20 05:36:32;;;;;;;;;;;;;;;-140.72;100.00;52445.66;6267586;22;19911;-84
2022/06/20 05:39:03;;;;;;;;;;;;;;;-140.72;100.00;52478.13;6275439;22;19965;-84
2022/06/20 05:41:29;;;;;;;;;;;;;;;-140.72;100.00;52486.22;6275084;22;19912;-83
2022/06/20 05:43:55;;;;;;;;;;;;;;;-140.72;100.00;52457.81;6274573;22;19927;-84
2022/06/20 05:46:27;;;;;;;;;;;;;;;-140.72;100.00;52431.44;6275031;22;20303;-84
2022/06/20 05:49:00;;;;;;;;;;;;;;;-140.72;100.00;52439.56;6274784;22;20247;-83
2022/06/20 05:51:26;;;;;;;;;;;;;;;-140.72;100.00;52443.63;6274899;22;19911;-85
2022/06/20 05:53:54;;;;;;;;;;;;;;;-140.72;100.00;52435.50;6274691;22;19911;-83
2022/06/20 05:56:30;;;;;;;;;;;;;;;-140.72;100.00;52415.22;6276055;22;19922;-91
2022/06/20 05:58:55;;;;;;;;;;;;;;;-140.72;100.00;52396.94;6274866;22;19911;-92
2022/06/20 06:01:33;;;;;;;;;;;;;;;-140.72;100.00;52407.09;6275293;22;19954;-85
2022/06/20 06:04:07;;;;;;;;;;;;;;;-140.72;100.00;52407.09;6245700;22;20205;-84
2022/06/20 06:06:37;;;;;;;;;;;;;;;-140.72;100.00;52403.03;6273150;22;19955;-84
2022/06/20 06:09:14;;;;;;;;;;;;;;;-140.72;100.00;52405.06;6267363;22;19977;-84
2022/06/20 06:11:39;;;;;;;;;;;;;;;-140.72;100.00;52409.13;6274401;22;20009;-83
2022/06/20 06:14:17;;;;;;;;;;;;;;;-140.72;100.00;52398.97;6276367;22;19912;-83
2022/06/20 06:17:02;;;;;;;;;;;;;;;-140.72;100.00;52411.16;6275548;22;19911;-84
2022/06/20 06:19:42;;;;;;;;;;;;;;;-140.72;100.00;52431.44;6274423;22;19919;-84
2022/06/20 06:22:13;;;;;;;;;;;;;;;-140.72;100.00;52398.97;6274864;22;19922;-83
2022/06/20 06:24:40;;;;;;;;;;;;;;;-140.72;100.00;52407.09;6274185;22;19986;-83
2022/06/20 06:27:07;;;;;;;;;;;;;;;-140.72;100.00;52415.22;6275249;22;19915;-84
2022/06/20 06:29:41;;;;;;;;;;;;;;;-140.72;100.00;52445.66;6275224;22;19922;-83
2022/06/20 06:32:14;;;;;;;;;;;;;;;-140.72;100.00;52413.19;6275079;22;20002;-85
2022/06/20 06:34:47;;;;;;;;;;;;;;;-140.72;100.00;52449.72;6274068;22;19915;-84
2022/06/20 06:37:17;;;;;;;;;;;;;;;-140.72;100.00;52423.31;6275188;22;19965;-84
2022/06/20 06:40:00;;;;;;;;;;;;;;;-140.72;100.00;52425.34;6273464;22;20025;-85
2022/06/20 06:47:39;;;;;;;;;;;;;;;-140.72;100.00;52453.75;6222140;22;20008;-69
2022/06/20 06:50:26;;;;;;;;;;;;;;;-140.72;100.00;52425.34;6195813;23;20245;-72
2022/06/20 06:52:56;;;;;;;;;;;;;;;-140.72;100.00;52445.66;6223357;23;20007;-69
2022/06/20 06:55:27;;;;;;;;;;;;;;;-140.72;100.00;52415.22;6195393;23;19912;-70
2022/06/20 06:57:56;;;;;;;;;;;;;;;-140.72;100.00;52425.34;6197484;23;19912;-70
2022/06/20 07:00:27;;;;;;;;;;;;;;;-140.72;100.00;52447.69;6249909;23;19918;-70
2022/06/20 07:02:55;;;;;;;;;;;;;;;-140.72;100.00;52409.13;6248764;23;19951;-69
2022/06/20 07:05:34;;;;;;;;;;;;;;;-140.72;100.00;52401.00;6250082;23;19938;-69
2022/06/20 07:08:03;;;;;;;;;;;;;;;-140.72;100.00;52415.22;6224112;23;19915;-68
2022/06/20 07:10:31;;;;;;;;;;;;;;;-140.72;100.00;52398.97;6224301;23;19911;-69
2022/06/20 07:13:05;;;;;;;;;;;;;;;-140.72;100.00;52378.69;6250518;23;20241;-69
2022/06/20 07:15:32;;;;;;;;;;;;;;;-140.72;100.00;52332.03;6250897;23;19916;-69
2022/06/20 07:18:06;;;;;;;;;;;;;;;-140.72;100.00;52392.88;6250072;23;19912;-69
2022/06/20 07:20:36;;;;;;;;;;;;;;;-140.72;100.00;52429.41;6250856;23;19919;-69
2022/06/20 07:23:02;;;;;;;;;;;;;;;-140.72;100.00;52398.97;6250675;23;19977;-68
2022/06/20 07:25:34;;;;;;;;;;;;;;;-140.72;100.00;52382.75;6223334;23;19911;-69
2022/06/20 07:28:16;;;;;;;;;;;;;;;-140.72;100.00;52421.28;6251732;23;19916;-69
2022/06/20 07:30:44;;;;;;;;;;;;;;;-140.72;100.00;52407.09;6250304;23;19912;-69
2022/06/20 07:33:17;;;;;;;;;;;;;;;-140.72;100.00;52407.09;6250410;22;20304;-70
2022/06/20 07:35:45;;;;;;;;;;;;;;;-140.72;100.00;52382.75;6224000;23;19938;-69
2022/06/20 07:38:13;;;;;;;;;;;;;;;-140.72;100.00;52376.66;6250987;23;19951;-70
2022/06/20 07:40:44;;;;;;;;;;;;;;;-140.72;100.00;52325.94;6223417;23;19911;-69
2022/06/20 07:43:20;;;;;;;;;;;;;;;-140.72;100.00;52305.63;6250566;23;20216;-69
2022/06/20 07:45:48;;;;;;;;;;;;;;;-140.72;100.00;52295.50;6223840;23;19912;-69
2022/06/20 07:48:16;;;;;;;;;;;;;;;-140.72;100.00;52340.13;6250282;23;20252;-69
2022/06/20 07:50:59;;;;;;;;;;;;;;;-140.72;100.00;52350.28;6224157;23;20313;-68
2022/06/20 07:53:29;;;;;;;;;;;;;;;-140.72;100.00;52334.03;6249394;23;19912;-70
2022/06/20 07:55:57;;;;;;;;;;;;;;;-140.72;100.00;52256.94;6250997;23;20001;-69
2022/06/20 07:58:30;;;;;;;;;;;;;;;-140.72;100.00;52313.75;6249534;23;19915;-69
2022/06/20 08:00:57;;;;;;;;;;;;;;;-140.72;100.00;52273.19;6250486;23;19911;-69
2022/06/20 08:03:38;;;;;;;;;;;;;;;-140.72;100.00;52269.13;6250741;23;19919;-69
2022/06/20 08:06:05;;;;;;;;;;;;;;;-140.72;100.00;52269.13;6222696;23;20279;-69
2022/06/20 08:08:37;;;;;;;;;;;;;;;-140.72;100.00;52238.69;6250318;23;19912;-69
2022/06/20 08:11:06;;;;;;;;;;;;;;;-140.72;100.00;52293.47;6223602;23;19911;-68
2022/06/20 08:13:38;;;;;;;;;;;;;;;-140.72;100.00;52236.66;6223420;23;19960;-69
2022/06/20 08:16:06;;;;;;;;;;;;;;;-140.72;100.00;52246.78;6250128;23;19911;-68
2022/06/20 08:18:32;;;;;;;;;;;;;;;-140.72;100.00;52303.59;6250863;23;20010;-69
2022/06/20 08:21:00;;;;;;;;;;;;;;;-140.72;100.00;52301.59;6250457;23;20331;-70
2022/06/20 08:23:45;;;;;;;;;;;;;;;-140.72;100.00;52307.66;6224364;23;20042;-68
2022/06/20 08:26:13;;;;;;;;;;;;;;;-140.72;100.00;52261.00;6223817;23;20253;-68
2022/06/20 08:28:46;;;;;;;;;;;;;;;-140.72;100.00;52309.69;6250270;23;19912;-69
2022/06/20 08:31:16;;;;;;;;;;;;;;;-140.72;100.00;52303.59;6224296;23;19991;-70
2022/06/20 08:34:01;;;;;;;;;;;;;;;-140.72;100.00;52313.75;6249958;22;19919;-68
2022/06/20 08:36:32;;;;;;;;;;;;;;;-140.72;100.00;52297.53;6250681;23;19935;-69
2022/06/20 08:39:04;;;;;;;;;;;;;;;-140.72;100.00;52220.41;6251740;23;19912;-69
2022/06/20 08:41:38;;;;;;;;;;;;;;;-140.72;100.00;52248.81;6250358;23;19999;-70
2022/06/20 08:44:06;;;;;;;;;;;;;;;-140.72;100.00;52234.63;6251061;23;19999;-70
2022/06/20 08:47:04;;;;;;;;;;;;;;;-140.72;100.00;52167.66;6250940;23;19911;-69
2022/06/20 08:49:38;;;;;;;;;;;;;;;-140.72;100.00;52194.03;6173846;23;19924;-68
2022/06/20 08:52:22;;;;;;;;;;;;;;;-140.72;100.00;52236.66;6223407;23;19911;-69
2022/06/20 08:55:02;;;;;;;;;;;;;;;-140.72;100.00;52220.41;6250609;23;19922;-69
2022/06/20 08:57:31;;;;;;;;;;;;;;;-140.72;100.00;52200.13;6223778;23;19911;-70
2022/06/20 09:00:05;;;;;;;;;;;;;;;-140.72;100.00;52196.06;6250609;23;19911;-69
2022/06/20 09:02:43;;;;;;;;;;;;;;;-140.72;100.00;52202.16;6250210;23;19923;-69
2022/06/20 09:05:09;;;;;;;;;;;;;;;-140.72;100.00;52177.81;6224256;23;19947;-69
2022/06/20 09:07:37;;;;;;;;;;;;;;;-140.72;100.00;52189.97;6223553;23;19919;-69
2022/06/20 09:10:22;;;;;;;;;;;;;;;-140.72;100.00;52159.56;6250185;23;19941;-69
2022/06/20 09:12:50;;;;;;;;;;;;;;;-140.72;100.00;52171.72;6250944;23;19916;-70
2022/06/20 09:15:34;;;;;;;;;;;;;;;-140.72;100.00;52163.59;6250520;23;19943;-69
2022/06/20 09:18:22;;;;;;;;;;;;;;;-140.72;100.00;52139.25;6250582;23;19926;-70
2022/06/20 09:20:52;;;;;;;;;;;;;;;-140.72;100.00;52116.94;6250116;23;19919;-68
2022/06/20 09:23:37;;;;;;;;;;;;;;;-140.72;100.00;52102.75;6250200;23;19912;-70
2022/06/20 09:26:02;;;;;;;;;;;;;;;-140.72;100.00;52094.63;6250924;23;19950;-68
2022/06/20 09:28:27;;;;;;;;;;;;;;;-140.72;100.00;52145.34;6222905;23;20242;-68
2022/06/20 09:30:52;;;;;;;;;;;;;;;-140.72;100.00;52084.47;6250604;23;19916;-68
2022/06/20 09:33:33;;;;;;;;;;;;;;;-140.72;100.00;52092.59;6251304;22;19942;-68
2022/06/20 09:36:34;;;;;;;;;;;;;;;-140.72;100.00;52021.56;6223996;23;19950;-68
2022/06/20 09:39:12;;;;;;;;;;;;;;;-140.72;100.00;52043.91;6133161;23;19917;-70
2022/06/20 09:41:40;;;;;;;;;;;;;;;-140.72;100.00;52064.19;6238671;23;19920;-70
2022/06/20 09:44:30;;;;;;;;;;;;;;;-140.72;100.00;52045.94;6224005;23;19912;-69
2022/06/20 09:46:58;;;;;;;;;;;;;;;-140.72;100.00;51997.22;6222108;23;20329;-69
2022/06/20 09:49:35;;;;;;;;;;;;;;;-140.72;100.00;52005.34;6226713;23;19991;-69
2022/06/20 09:52:00;;;;;;;;;;;;;;;-140.72;100.00;51981.00;6220290;23;19923;-69
2022/06/20 09:54:36;;;;;;;;;;;;;;;-140.72;100.00;52005.34;6220384;23;19911;-70
2022/06/20 09:57:01;;;;;;;;;;;;;;;-140.72;100.00;52001.28;6220103;23;19912;-69
2022/06/20 09:59:35;;;;;;;;;;;;;;;-140.72;100.00;52013.47;6222220;23;19912;-70
2022/06/20 10:02:09;;;;;;;;;;;;;;;-140.72;100.00;52007.38;6220174;23;19923;-69
2022/06/20 10:04:34;;;;;;;;;;;;;;;-140.72;100.00;51995.19;6220299;23;19919;-69
2022/06/20 10:07:17;;;;;;;;;;;;;;;-140.72;100.00;51993.19;6219749;23;19911;-69
2022/06/20 10:09:50;;;;;;;;;;;;;;;-140.72;100.00;51903.91;6220966;23;19922;-70
2022/06/20 10:12:39;;;;;;;;;;;;;;;-140.72;100.00;51952.59;6193072;23;20334;-69
2022/06/20 10:15:31;;;;;;;;;;;;;;;-140.72;100.00;51966.81;6192563;23;19912;-69
2022/06/20 10:18:15;;;;;;;;;;;;;;;-140.72;100.00;51944.47;6217207;23;19912;-68
2022/06/20 10:20:46;;;;;;;;;;;;;;;-140.72;100.00;51903.91;6219763;23;19994;-68
2022/06/20 10:23:25;;;;;;;;;;;;;;;-140.72;100.00;51891.72;6219521;23;19919;-70
2022/06/20 10:25:51;;;;;;;;;;;;;;;-140.72;100.00;51926.22;6221325;23;19912;-69
2022/06/20 10:28:21;;;;;;;;;;;;;;;-140.72;100.00;51987.09;6221309;23;19919;-70
2022/06/20 10:30:58;;;;;;;;;;;;;;;-140.72;100.00;52015.50;6219772;23;19912;-69
2022/06/20 10:33:42;;;;;;;;;;;;;;;-140.72;100.00;51962.75;6220200;23;20345;-70
2022/06/20 10:36:24;;;;;;;;;;;;;;;-140.72;100.00;51924.19;6221166;23;19954;-69
2022/06/20 10:39:25;;;;;;;;;;;;;;;-140.72;100.00;51885.66;6219930;23;19918;-69
2022/06/20 10:41:50;;;;;;;;;;;;;;;-140.72;100.00;51834.91;6136293;23;19924;-68
2022/06/20 10:44:25;;;;;;;;;;;;;;;-140.72;100.00;51926.22;6185315;23;19912;-69
2022/06/20 10:46:59;;;;;;;;;;;;;;;-140.72;100.00;52013.47;6222870;23;19922;-70
2022/06/20 10:49:42;;;;;;;;;;;;;;;-140.72;100.00;51950.56;6221323;23;19916;-69
2022/06/20 10:52:20;;;;;;;;;;;;;;;-140.72;100.00;51960.72;6196613;23;19935;-68
2022/06/20 10:55:01;;;;;;;;;;;;;;;-140.72;100.00;51960.72;6221997;23;20253;-69
2022/06/20 10:57:32;;;;;;;;;;;;;;;-140.72;100.00;51907.97;6221510;23;19912;-68
2022/06/20 11:00:07;;;;;;;;;;;;;;;-140.72;100.00;51916.06;6221931;23;19951;-69
2022/06/20 11:02:54;;;;;;;;;;;;;;;-140.72;100.00;51871.44;6222115;23;19912;-68
2022/06/20 11:05:19;;;;;;;;;;;;;;;-140.72;100.00;51826.81;6192893;23;19965;-69
2022/06/20 11:07:58;;;;;;;;;;;;;;;-140.72;100.00;51999.25;6220787;23;19912;-70
2022/06/20 11:10:23;;;;;;;;;;;;;;;-140.72;100.00;52021.56;6221326;23;19991;-68
2022/06/20 11:12:51;;;;;;;;;;;;;;;-140.72;100.00;51934.34;6221721;23;19912;-70
2022/06/20 11:15:19;;;;;;;;;;;;;;;-140.72;100.00;51887.66;6194923;23;19955;-69
2022/06/20 11:17:57;;;;;;;;;;;;;;;-140.72;100.00;51861.28;6221249;23;20241;-70
2022/06/20 11:20:32;;;;;;;;;;;;;;;-140.72;100.00;51843.03;6194814;23;19955;-69
2022/06/20 11:23:06;;;;;;;;;;;;;;;-140.72;97.33;51845.06;6221684;23;19919;-69
2022/06/20 11:25:38;;;;;;;;;;;;;;;-140.72;89.11;51845.06;6221246;23;19990;-69
2022/06/20 11:28:26;;;;;;;;;;;;;;;-140.72;100.00;52041.88;6221648;23;19919;-70
2022/06/20 11:30:51;;;;;;;;;;;;;;;-140.72;100.00;52041.88;6212616;23;19916;-68
2022/06/20 11:36:16;;;;;;;;;;;;;;;-140.72;100.00;52003.31;6221709;23;20258;-67
2022/06/20 11:38:44;;;;;;;;;;;;;;;-140.72;100.00;52062.16;6194825;23;19923;-70
2022/06/20 11:41:13;;;;;;;;;;;;;;;-140.72;100.00;52102.75;6221551;23;19948;-70
2022/06/20 11:43:42;;;;;;;;;;;;;;;-140.72;100.00;52127.09;6195055;23;19912;-69
2022/06/20 11:46:10;;;;;;;;;;;;;;;-140.72;100.00;52110.84;6220889;23;19912;-69
2022/06/20 11:49:01;;;;;;;;;;;;;;;-140.72;100.00;52171.72;6220518;23;19916;-69
2022/06/20 11:51:26;;;;;;;;;;;;;;;-140.72;100.00;52155.50;6197428;23;19912;-69
2022/06/20 11:54:27;;;;;;;;;;;;;;;-140.72;100.00;52157.53;6221731;23;19987;-69
2022/06/20 11:56:57;;;;;;;;;;;;;;;-140.72;100.00;52157.53;6159953;23;19913;-69
2022/06/20 11:59:25;;;;;;;;;;;;;;;-140.72;100.00;52116.94;6210536;23;19912;-69
2022/06/20 12:01:51;;;;;;;;;;;;;;;-140.72;100.00;52110.84;6220533;23;19990;-68
2022/06/20 12:04:22;;;;;;;;;;;;;;;-140.72;100.00;52129.13;6221662;23;20006;-68
2022/06/20 12:07:06;;;;;;;;;;;;;;;-140.72;100.00;52204.19;6221309;23;19919;-69
2022/06/20 12:09:40;;;;;;;;;;;;;;;-140.72;100.00;52202.16;6220994;23;19999;-69
2022/06/20 12:12:05;;;;;;;;;;;;;;;-140.72;100.00;52204.19;6220907;23;20009;-68
2022/06/20 12:14:30;;;;;;;;;;;;;;;-140.72;100.00;52196.06;6220792;23;20330;-69
2022/06/20 12:17:11;;;;;;;;;;;;;;;-140.72;100.00;52161.56;6194199;23;19923;-71
2022/06/20 12:25:44;;;;;;;;;;;;;;;-140.72;100.00;52189.97;6171810;23;20281;-69
2022/06/20 12:28:18;;;;;;;;;;;;;;;-140.72;100.00;52135.19;6220234;23;19995;-69
2022/06/20 12:30:43;;;;;;;;;;;;;;;-140.72;100.00;52110.84;6193725;23;20257;-68
2022/06/20 12:33:10;;;;;;;;;;;;;;;-140.72;100.00;52123.03;6193120;23;19920;-69
2022/06/20 12:35:39;;;;;;;;;;;;;;;-140.72;100.00;52005.34;6220722;23;19995;-69
2022/06/20 12:38:19;;;;;;;;;;;;;;;-140.72;100.00;52031.72;6220228;23;19912;-69
2022/06/20 12:40:46;;;;;;;;;;;;;;;-140.72;100.00;52084.47;6194138;23;19919;-69
2022/06/20 12:43:15;;;;;;;;;;;;;;;-140.72;100.00;52145.34;6220443;23;19942;-70
2022/06/20 12:45:40;;;;;;;;;;;;;;;-140.72;100.00;52078.38;6220342;23;19916;-67
2022/06/20 12:48:20;;;;;;;;;;;;;;;-140.72;100.00;52196.06;6220320;23;19923;-69
2022/06/20 12:50:48;;;;;;;;;;;;;;;-140.72;100.00;51985.06;6220305;23;20015;-70
2022/06/20 12:53:19;;;;;;;;;;;;;;;-140.72;100.00;51944.47;6221344;23;20015;-69
2022/06/20 12:55:45;;;;;;;;;;;;;;;-140.72;100.00;51952.59;6220927;23;19935;-69
2022/06/20 12:58:13;;;;;;;;;;;;;;;-140.72;100.00;51987.09;6220874;23;19974;-69
2022/06/20 13:00:42;;;;;;;;;;;;;;;-140.72;100.00;51962.75;6220132;23;19911;-70
2022/06/20 13:03:18;;;;;;;;;;;;;;;-140.72;100.00;51875.50;6219678;23;19912;-70